Time;durP1;ratioP1;P1;durP2;ratioP2;P2;SDS_P1;SDS_P2;PMS_P1;PMS_P2;Temp;Humidity;BMP_temperature;BMP_pressure;BME280_temperature;BME280_humidity;BME280_pressure;Samples;Min_cycle;Max_cycle;Signal;HPM_P1;HPM_P2
2023/07/31 00:00:13;;;;;;;12.30;6.53;;;15.20;99.90;;;;;;7369062;19;20117;-67
2023/07/31 00:02:39;;;;;;;9.88;6.40;;;15.20;99.90;;;;;;7373511;19;20022;-67
2023/07/31 00:05:06;;;;;;;9.70;5.93;;;15.20;99.90;;;;;;7371830;19;20037;-68
2023/07/31 00:07:32;;;;;;;9.52;6.03;;;15.20;99.90;;;;;;7370328;19;20029;-67
2023/07/31 00:09:58;;;;;;;11.30;6.32;;;15.20;99.90;;;;;;7371039;19;20029;-67
2023/07/31 00:12:27;;;;;;;8.32;6.43;;;15.10;99.90;;;;;;7376376;19;20052;-66
2023/07/31 00:14:53;;;;;;;10.50;6.57;;;15.10;99.90;;;;;;7371512;19;20133;-67
2023/07/31 00:17:20;;;;;;;10.27;7.03;;;15.10;99.90;;;;;;7373636;19;20238;-69
2023/07/31 00:19:46;;;;;;;12.20;7.22;;;15.10;99.90;;;;;;7367235;19;20026;-67
2023/07/31 00:22:12;;;;;;;9.38;7.10;;;15.10;99.90;;;;;;7372871;19;20461;-67
2023/07/31 00:24:38;;;;;;;9.50;6.97;;;15.10;99.90;;;;;;7370568;19;20453;-67
2023/07/31 00:27:05;;;;;;;8.25;6.65;;;15.00;99.90;;;;;;7368278;19;20082;-67
2023/07/31 00:29:32;;;;;;;10.43;6.57;;;15.00;99.90;;;;;;7364628;19;20022;-67
2023/07/31 00:31:58;;;;;;;9.85;7.22;;;15.00;99.90;;;;;;7369968;19;21061;-66
2023/07/31 00:34:24;;;;;;;8.20;6.15;;;15.00;99.90;;;;;;7364581;19;20018;-66
2023/07/31 00:36:51;;;;;;;8.07;6.35;;;15.00;99.90;;;;;;7371666;19;20370;-66
2023/07/31 00:39:17;;;;;;;10.75;6.70;;;14.90;99.90;;;;;;7370277;19;20033;-67
2023/07/31 00:41:44;;;;;;;7.43;5.97;;;15.00;99.90;;;;;;7369595;19;20639;-67
2023/07/31 00:44:11;;;;;;;10.90;6.43;;;15.00;99.90;;;;;;7369666;19;20022;-66
2023/07/31 00:46:37;;;;;;;7.60;6.05;;;15.00;99.90;;;;;;7369823;19;20050;-58
2023/07/31 00:49:04;;;;;;;8.88;6.00;;;15.00;99.90;;;;;;7373005;19;20025;-66
2023/07/31 00:51:31;;;;;;;10.45;6.45;;;15.00;99.90;;;;;;7364670;19;20015;-66
2023/07/31 00:53:58;;;;;;;8.88;5.43;;;14.90;99.90;;;;;;7371536;19;20430;-58
2023/07/31 00:56:25;;;;;;;9.48;6.10;;;15.00;99.90;;;;;;7368983;19;20310;-58
2023/07/31 00:58:52;;;;;;;7.55;5.78;;;14.90;99.90;;;;;;7369847;19;20022;-58
2023/07/31 01:01:18;;;;;;;9.98;6.15;;;14.90;99.90;;;;;;7367621;19;20132;-58
2023/07/31 01:03:44;;;;;;;6.88;5.70;;;14.90;99.90;;;;;;7368520;19;20022;-66
2023/07/31 01:06:26;;;;;;;7.85;5.00;;;14.90;99.90;;;;;;7370687;19;20023;-66
2023/07/31 01:09:13;;;;;;;10.10;5.68;;;14.80;99.90;;;;;;7370341;19;20505;-66
2023/07/31 01:11:53;;;;;;;8.63;5.38;;;14.80;99.90;;;;;;7366696;19;20470;-66
2023/07/31 01:14:19;;;;;;;6.53;4.20;;;14.80;99.90;;;;;;7362855;19;20494;-66
2023/07/31 01:16:45;;;;;;;9.65;5.22;;;14.80;99.90;;;;;;7367404;19;20433;-66
2023/07/31 01:19:15;;;;;;;7.97;4.95;;;14.70;99.90;;;;;;7364553;19;21291;-65
2023/07/31 01:22:11;;;;;;;9.15;5.18;;;14.70;99.90;;;;;;7361826;19;20010;-65
2023/07/31 01:25:03;;;;;;;11.80;5.72;;;14.70;99.90;;;;;;7368127;19;20458;-65
2023/07/31 01:27:39;;;;;;;6.78;4.55;;;14.80;99.90;;;;;;7369124;19;20519;-65
2023/07/31 01:30:14;;;;;;;6.43;4.10;;;14.70;99.90;;;;;;7369395;19;20025;-66
2023/07/31 01:32:43;;;;;;;6.72;4.35;;;14.80;99.90;;;;;;7367815;19;20042;-66
2023/07/31 01:35:10;;;;;;;6.13;3.85;;;14.80;99.90;;;;;;7366471;19;20485;-66
2023/07/31 01:37:36;;;;;;;6.88;4.10;;;14.80;99.90;;;;;;7365371;19;20401;-66
2023/07/31 01:40:05;;;;;;;6.25;3.97;;;14.80;99.90;;;;;;7363474;19;20031;-66
2023/07/31 01:42:31;;;;;;;6.63;4.70;;;14.80;99.90;;;;;;7363537;19;20063;-66
2023/07/31 01:44:57;;;;;;;6.53;4.10;;;14.80;99.90;;;;;;7364718;19;20035;-65
2023/07/31 01:47:24;;;;;;;5.80;4.03;;;14.80;99.90;;;;;;7365661;19;20458;-66
2023/07/31 01:49:50;;;;;;;4.68;3.55;;;14.90;99.90;;;;;;7366837;19;20352;-66
2023/07/31 01:52:16;;;;;;;7.20;4.32;;;14.90;99.90;;;;;;7362998;19;20018;-66
2023/07/31 01:54:42;;;;;;;5.78;4.30;;;14.90;99.90;;;;;;7364152;19;20018;-58
2023/07/31 01:57:09;;;;;;;6.22;4.05;;;14.90;99.90;;;;;;7368571;19;20157;-58
2023/07/31 01:59:35;;;;;;;9.90;3.78;;;14.90;99.90;;;;;;7361600;19;20015;-57
2023/07/31 02:02:01;;;;;;;6.45;3.95;;;14.90;99.90;;;;;;7365495;19;20497;-58
2023/07/31 02:04:27;;;;;;;4.70;3.58;;;14.90;99.90;;;;;;7365249;19;20033;-65
2023/07/31 02:06:54;;;;;;;6.70;3.65;;;14.90;99.90;;;;;;7365263;19;20486;-65
2023/07/31 02:09:23;;;;;;;6.55;4.07;;;14.90;99.90;;;;;;7363100;19;20018;-64
2023/07/31 02:11:49;;;;;;;5.55;4.10;;;14.80;99.90;;;;;;7369343;19;20018;-58
2023/07/31 02:14:15;;;;;;;7.72;3.35;;;14.90;99.90;;;;;;7372981;19;20551;-57
2023/07/31 02:16:42;;;;;;;5.32;3.08;;;14.90;99.90;;;;;;7369723;19;20109;-60
2023/07/31 02:19:09;;;;;;;3.67;2.72;;;14.90;99.90;;;;;;7370555;19;20021;-57
2023/07/31 02:21:35;;;;;;;5.28;2.80;;;14.90;99.90;;;;;;7371652;19;20095;-64
2023/07/31 02:24:21;;;;;;;11.15;3.22;;;15.00;99.90;;;;;;7371938;19;20018;-65
2023/07/31 02:26:48;;;;;;;4.03;2.63;;;14.90;99.90;;;;;;7368928;19;20015;-65
2023/07/31 02:29:15;;;;;;;3.60;2.58;;;15.00;99.90;;;;;;7370816;19;20019;-64
2023/07/31 02:31:41;;;;;;;3.58;2.38;;;15.00;99.90;;;;;;7371769;19;20023;-64
2023/07/31 02:34:07;;;;;;;4.05;2.70;;;15.00;99.90;;;;;;7374419;19;20031;-66
2023/07/31 02:36:36;;;;;;;4.18;2.67;;;15.00;99.90;;;;;;7373550;19;20477;-65
2023/07/31 02:39:03;;;;;;;4.05;2.90;;;15.00;99.90;;;;;;7368095;19;20066;-65
2023/07/31 02:41:30;;;;;;;5.55;3.10;;;15.10;99.90;;;;;;7371907;19;20026;-65
2023/07/31 02:44:02;;;;;;;6.00;3.65;;;15.10;99.90;;;;;;7373326;19;20022;-65
2023/07/31 02:46:29;;;;;;;5.03;3.50;;;15.10;99.90;;;;;;7372146;19;20025;-65
2023/07/31 02:48:58;;;;;;;5.20;3.45;;;15.10;99.90;;;;;;7376631;19;20018;-65
2023/07/31 02:51:27;;;;;;;4.78;3.67;;;15.10;99.90;;;;;;7372266;19;20764;-65
2023/07/31 02:53:53;;;;;;;6.57;3.53;;;15.10;99.90;;;;;;7369950;19;20857;-65
2023/07/31 02:56:20;;;;;;;5.90;3.30;;;15.10;99.90;;;;;;7373885;19;21037;-65
2023/07/31 02:58:46;;;;;;;6.03;3.42;;;15.10;99.90;;;;;;7369969;19;20121;-65
2023/07/31 03:01:12;;;;;;;7.95;4.22;;;15.10;99.90;;;;;;7372271;19;20022;-65
2023/07/31 03:03:38;;;;;;;4.80;3.28;;;15.10;99.90;;;;;;7370902;19;20030;-65
2023/07/31 03:06:05;;;;;;;5.35;4.20;;;15.20;99.90;;;;;;7371805;19;20022;-58
2023/07/31 03:08:31;;;;;;;5.45;4.32;;;15.10;99.90;;;;;;7373484;19;20014;-58
2023/07/31 03:10:58;;;;;;;7.72;5.30;;;15.20;99.90;;;;;;7372587;19;20026;-59
2023/07/31 03:13:24;;;;;;;6.93;4.43;;;15.10;99.90;;;;;;7368735;19;20465;-58
2023/07/31 03:15:50;;;;;;;6.63;5.40;;;15.20;99.90;;;;;;7374476;19;21091;-58
2023/07/31 03:18:17;;;;;;;8.07;4.88;;;15.20;99.90;;;;;;7370553;19;20477;-58
2023/07/31 03:20:44;;;;;;;8.43;5.15;;;15.20;99.90;;;;;;7373011;19;20457;-58
2023/07/31 03:23:10;;;;;;;9.68;6.03;;;15.20;99.90;;;;;;7368025;19;20022;-59
2023/07/31 03:25:37;;;;;;;9.75;5.18;;;15.20;99.90;;;;;;7371205;19;20469;-59
2023/07/31 03:28:04;;;;;;;10.32;5.90;;;15.20;99.90;;;;;;7370822;19;20010;-58
2023/07/31 03:30:31;;;;;;;10.25;6.00;;;15.20;99.90;;;;;;7369121;19;20022;-58
2023/07/31 03:32:58;;;;;;;11.00;5.47;;;15.30;99.90;;;;;;7369166;19;20026;-58
2023/07/31 03:35:25;;;;;;;7.93;5.30;;;15.30;99.90;;;;;;7368076;19;20025;-58
2023/07/31 03:37:51;;;;;;;8.63;6.10;;;15.30;99.90;;;;;;7368984;19;20022;-59
2023/07/31 03:40:17;;;;;;;8.60;5.90;;;15.30;99.90;;;;;;7367617;19;20050;-59
2023/07/31 03:42:44;;;;;;;9.93;6.03;;;15.40;99.90;;;;;;7366410;19;20055;-58
2023/07/31 03:45:10;;;;;;;7.20;5.35;;;15.50;99.90;;;;;;7371082;19;20019;-58
2023/07/31 03:47:36;;;;;;;7.68;5.20;;;15.50;99.90;;;;;;7367927;19;20014;-58
2023/07/31 03:50:03;;;;;;;7.55;4.95;;;15.50;99.90;;;;;;7371511;19;20015;-58
2023/07/31 03:52:30;;;;;;;8.48;5.50;;;15.50;99.90;;;;;;7369433;19;20474;-59
2023/07/31 03:54:56;;;;;;;8.38;4.95;;;15.50;99.90;;;;;;7374727;19;20011;-58
2023/07/31 03:57:22;;;;;;;12.82;5.10;;;15.50;99.90;;;;;;7369903;19;20022;-58
2023/07/31 03:59:49;;;;;;;9.10;5.32;;;15.60;99.90;;;;;;7367932;19;20025;-59
2023/07/31 04:02:16;;;;;;;12.70;5.88;;;15.60;99.90;;;;;;7370223;19;20496;-59
2023/07/31 04:04:42;;;;;;;9.88;5.65;;;15.60;99.90;;;;;;7369432;19;20028;-59
2023/07/31 04:07:08;;;;;;;14.02;5.28;;;15.60;99.90;;;;;;7371632;19;20062;-58
2023/07/31 04:09:34;;;;;;;7.60;4.22;;;15.70;99.90;;;;;;7366787;19;20019;-64
2023/07/31 04:12:01;;;;;;;10.35;4.80;;;15.70;99.90;;;;;;7375724;19;20026;-64
2023/07/31 04:14:27;;;;;;;6.07;4.18;;;15.70;99.90;;;;;;7371431;19;20026;-65
2023/07/31 04:16:53;;;;;;;5.45;3.90;;;15.60;99.90;;;;;;7374601;19;20070;-64
2023/07/31 04:19:19;;;;;;;5.22;3.35;;;15.70;99.90;;;;;;7369567;19;20026;-65
2023/07/31 04:21:45;;;;;;;6.65;3.60;;;15.60;99.90;;;;;;7371731;19;20018;-66
2023/07/31 04:24:32;;;;;;;9.57;3.75;;;15.70;99.90;;;;;;7367245;19;20011;-63
2023/07/31 04:26:58;;;;;;;8.93;4.63;;;15.70;99.90;;;;;;7370330;19;20022;-63
2023/07/31 04:29:25;;;;;;;9.05;5.50;;;15.70;99.90;;;;;;7368249;19;20026;-63
2023/07/31 04:31:52;;;;;;;11.60;6.28;;;15.80;99.90;;;;;;7369680;19;20029;-63
2023/07/31 04:34:18;;;;;;;12.48;6.70;;;15.80;99.90;;;;;;7368664;19;20722;-63
2023/07/31 04:36:44;;;;;;;15.48;7.20;;;15.80;99.90;;;;;;7368660;19;21019;-63
2023/07/31 04:39:11;;;;;;;11.23;7.32;;;15.90;99.90;;;;;;7366470;19;20010;-63
2023/07/31 04:41:37;;;;;;;13.50;6.93;;;15.90;99.90;;;;;;7369365;19;20029;-63
2023/07/31 04:44:03;;;;;;;16.45;7.22;;;15.90;99.90;;;;;;7368456;19;20055;-63
2023/07/31 04:46:30;;;;;;;16.52;7.20;;;15.90;99.90;;;;;;7366945;19;20060;-57
2023/07/31 04:48:57;;;;;;;12.80;7.00;;;16.00;99.90;;;;;;7366474;19;20291;-57
2023/07/31 04:51:23;;;;;;;18.13;7.72;;;16.00;99.90;;;;;;7367788;19;20022;-57
2023/07/31 04:53:50;;;;;;;21.58;8.73;;;16.00;99.90;;;;;;7366208;19;20030;-58
2023/07/31 04:56:16;;;;;;;22.83;9.15;;;16.00;99.90;;;;;;7366984;19;20456;-58
2023/07/31 04:58:43;;;;;;;25.15;8.80;;;16.00;99.90;;;;;;7365244;19;20505;-58
2023/07/31 05:01:09;;;;;;;24.58;8.32;;;16.00;99.90;;;;;;7371730;19;20391;-58
2023/07/31 05:03:35;;;;;;;19.17;8.32;;;16.00;99.90;;;;;;7369173;19;20493;-58
2023/07/31 05:06:01;;;;;;;21.38;8.98;;;16.00;99.90;;;;;;7370353;19;20070;-58
2023/07/31 05:08:28;;;;;;;24.65;8.75;;;16.00;99.90;;;;;;7372706;19;20018;-60
2023/07/31 05:10:54;;;;;;;24.55;8.40;;;16.00;99.90;;;;;;7367982;19;20027;-57
2023/07/31 05:13:20;;;;;;;23.75;9.25;;;16.00;99.90;;;;;;7369168;19;20025;-57
2023/07/31 05:15:49;;;;;;;23.63;9.23;;;16.00;99.90;;;;;;7364828;19;20022;-57
2023/07/31 05:18:15;;;;;;;24.33;10.60;;;16.00;99.90;;;;;;7368150;19;20041;-57
2023/07/31 05:20:41;;;;;;;30.30;10.38;;;16.00;99.90;;;;;;7366783;19;20053;-57
2023/07/31 05:23:08;;;;;;;31.70;11.85;;;16.00;99.90;;;;;;7371364;19;20025;-57
2023/07/31 05:25:34;;;;;;;33.33;11.82;;;16.00;99.90;;;;;;7370682;19;20019;-57
2023/07/31 05:28:01;;;;;;;28.80;12.40;;;16.00;99.90;;;;;;7370623;19;20454;-57
2023/07/31 05:30:29;;;;;;;28.48;11.55;;;16.10;99.90;;;;;;7368864;19;20015;-57
2023/07/31 05:32:56;;;;;;;33.70;12.00;;;16.10;99.90;;;;;;7370430;19;20052;-58
2023/07/31 05:35:23;;;;;;;29.45;11.73;;;16.10;99.90;;;;;;7370750;19;20100;-57
2023/07/31 05:37:49;;;;;;;34.03;12.68;;;16.10;99.90;;;;;;7369361;19;20021;-57
2023/07/31 05:40:15;;;;;;;42.78;12.57;;;16.10;99.90;;;;;;7367724;19;20557;-57
2023/07/31 05:42:41;;;;;;;33.92;13.50;;;16.10;99.90;;;;;;7372071;19;20416;-57
2023/07/31 05:45:08;;;;;;;33.10;13.32;;;16.10;99.90;;;;;;7367551;19;20502;-57
2023/07/31 05:47:34;;;;;;;34.72;13.00;;;16.10;99.90;;;;;;7370677;19;20402;-57
2023/07/31 05:50:01;;;;;;;33.42;13.23;;;16.20;99.90;;;;;;7373642;19;20383;-58
2023/07/31 05:52:28;;;;;;;34.28;13.75;;;16.30;99.90;;;;;;7370902;19;20024;-57
2023/07/31 05:54:56;;;;;;;39.03;14.00;;;16.20;99.90;;;;;;7367753;19;20439;-57
2023/07/31 05:57:22;;;;;;;36.35;14.57;;;16.30;99.90;;;;;;7371699;19;20018;-57
2023/07/31 05:59:49;;;;;;;37.83;13.45;;;16.30;99.90;;;;;;7369272;19;20042;-58
2023/07/31 06:02:15;;;;;;;35.47;13.20;;;16.30;99.90;;;;;;7370470;19;20021;-57
2023/07/31 06:04:41;;;;;;;33.13;12.85;;;16.30;99.90;;;;;;7368485;19;20074;-57
2023/07/31 06:07:07;;;;;;;36.50;14.52;;;16.20;99.90;;;;;;7369566;19;20446;-64
2023/07/31 06:09:34;;;;;;;35.80;14.05;;;16.20;99.90;;;;;;7371515;19;20015;-57
2023/07/31 06:12:00;;;;;;;34.33;13.93;;;16.20;99.90;;;;;;7370204;19;20384;-57
2023/07/31 06:14:26;;;;;;;39.60;14.55;;;16.20;99.90;;;;;;7366495;19;20022;-63
2023/07/31 06:16:52;;;;;;;47.40;15.32;;;16.20;99.90;;;;;;7369124;19;20022;-57
2023/07/31 06:19:20;;;;;;;43.15;15.23;;;16.20;99.90;;;;;;7368597;19;20029;-62
2023/07/31 06:21:46;;;;;;;45.22;15.52;;;16.20;99.90;;;;;;7372292;19;20048;-58
2023/07/31 06:24:13;;;;;;;39.75;15.05;;;16.20;99.90;;;;;;7370869;19;20761;-58
2023/07/31 06:26:39;;;;;;;35.17;14.18;;;16.20;99.90;;;;;;7373284;19;20496;-64
2023/07/31 06:29:06;;;;;;;33.55;13.93;;;16.20;99.90;;;;;;7372063;19;20015;-64
2023/07/31 06:31:32;;;;;;;34.30;14.95;;;16.30;99.90;;;;;;7371553;19;20383;-64
2023/07/31 06:33:59;;;;;;;31.17;13.52;;;16.30;99.90;;;;;;7370214;19;20484;-65
2023/07/31 06:36:25;;;;;;;31.88;13.43;;;16.20;99.90;;;;;;7371379;19;20461;-65
2023/07/31 06:38:52;;;;;;;40.25;14.57;;;16.30;99.90;;;;;;7368598;19;20381;-65
2023/07/31 06:41:18;;;;;;;35.33;13.70;;;16.30;99.90;;;;;;7371879;19;20487;-65
2023/07/31 06:43:44;;;;;;;30.73;12.98;;;16.30;99.90;;;;;;7369567;19;20018;-65
2023/07/31 06:46:10;;;;;;;36.35;13.25;;;16.30;99.90;;;;;;7368805;19;20540;-65
2023/07/31 06:48:37;;;;;;;31.30;13.65;;;16.20;99.90;;;;;;7370067;19;20015;-65
2023/07/31 06:51:03;;;;;;;42.10;14.23;;;16.20;99.90;;;;;;7370137;19;20018;-58
2023/07/31 06:53:30;;;;;;;29.27;13.60;;;16.20;99.90;;;;;;7370613;19;20605;-58
2023/07/31 06:55:56;;;;;;;31.42;15.52;;;16.20;99.90;;;;;;7365757;19;20585;-58
2023/07/31 06:58:22;;;;;;;31.23;14.00;;;16.20;99.90;;;;;;7375956;19;20036;-58
2023/07/31 07:00:51;;;;;;;32.80;15.70;;;16.20;99.90;;;;;;7374448;19;20025;-59
2023/07/31 07:03:21;;;;;;;34.03;15.13;;;16.20;99.90;;;;;;7377023;19;20094;-59
2023/07/31 07:05:47;;;;;;;30.10;14.13;;;16.20;99.90;;;;;;7377611;19;20074;-58
2023/07/31 07:08:13;;;;;;;25.02;14.40;;;16.20;99.90;;;;;;7374589;19;20019;-58
2023/07/31 07:10:40;;;;;;;28.77;14.00;;;16.20;99.90;;;;;;7374725;19;20421;-58
2023/07/31 07:13:06;;;;;;;30.58;13.85;;;16.30;99.90;;;;;;7379519;19;20821;-59
2023/07/31 07:15:32;;;;;;;22.70;11.75;;;16.20;99.90;;;;;;7378493;19;20010;-58
2023/07/31 07:17:59;;;;;;;23.38;11.10;;;16.30;99.90;;;;;;7378078;19;20021;-59
2023/07/31 07:20:26;;;;;;;24.75;12.18;;;16.20;99.90;;;;;;7379229;19;20029;-58
2023/07/31 07:22:52;;;;;;;29.77;13.73;;;16.20;99.90;;;;;;7374661;19;20445;-58
2023/07/31 07:25:19;;;;;;;31.38;14.00;;;16.20;99.90;;;;;;7376403;19;20018;-64
2023/07/31 07:27:45;;;;;;;25.88;12.07;;;16.30;99.90;;;;;;7378047;19;20139;-66
2023/07/31 07:30:11;;;;;;;24.02;11.18;;;16.30;99.90;;;;;;7379060;19;20585;-57
2023/07/31 07:32:37;;;;;;;17.95;10.18;;;16.40;99.90;;;;;;7375216;19;20648;-63
2023/07/31 07:35:05;;;;;;;16.88;9.38;;;16.50;99.90;;;;;;7374266;19;20470;-63
2023/07/31 07:37:32;;;;;;;15.95;8.63;;;16.50;99.90;;;;;;7380524;19;20020;-63
2023/07/31 07:39:58;;;;;;;14.82;7.93;;;16.60;99.90;;;;;;7376776;19;20450;-65
2023/07/31 07:42:25;;;;;;;17.58;8.63;;;16.50;99.90;;;;;;7376454;19;20370;-58
2023/07/31 07:44:51;;;;;;;14.10;7.60;;;16.60;99.90;;;;;;7374605;19;20022;-58
2023/07/31 07:47:17;;;;;;;13.90;7.32;;;16.60;99.90;;;;;;7373225;19;20036;-58
2023/07/31 07:49:43;;;;;;;13.32;7.45;;;16.70;99.90;;;;;;7371495;19;20500;-58
2023/07/31 07:52:10;;;;;;;12.68;6.13;;;16.70;99.90;;;;;;7375535;19;20019;-58
2023/07/31 07:54:36;;;;;;;12.32;6.57;;;16.70;99.90;;;;;;7375511;19;20014;-58
2023/07/31 07:57:03;;;;;;;12.15;6.70;;;16.80;99.90;;;;;;7379581;19;20018;-59
2023/07/31 07:59:29;;;;;;;10.82;6.15;;;16.80;99.90;;;;;;7376408;19;20417;-59
2023/07/31 08:01:57;;;;;;;10.60;6.22;;;16.80;99.90;;;;;;7374241;19;20081;-65
2023/07/31 08:04:23;;;;;;;9.88;5.28;;;16.80;99.90;;;;;;7377054;19;20018;-64
2023/07/31 08:06:49;;;;;;;7.47;5.20;;;16.70;99.90;;;;;;7372246;19;20836;-65
2023/07/31 08:09:16;;;;;;;11.05;5.20;;;16.70;99.90;;;;;;7375949;19;20058;-64
2023/07/31 08:11:42;;;;;;;10.98;5.40;;;16.70;99.90;;;;;;7373183;19;20017;-59
2023/07/31 08:14:08;;;;;;;8.93;5.30;;;16.70;99.90;;;;;;7375885;19;20035;-59
2023/07/31 08:16:34;;;;;;;8.40;5.32;;;16.70;99.90;;;;;;7375578;19;20018;-59
2023/07/31 08:19:00;;;;;;;10.43;4.93;;;16.70;99.90;;;;;;7373223;19;20014;-59
2023/07/31 08:21:26;;;;;;;8.60;5.07;;;16.80;99.90;;;;;;7374034;19;20011;-64
2023/07/31 08:23:53;;;;;;;7.28;5.47;;;16.90;99.90;;;;;;7372993;19;20018;-59
2023/07/31 08:26:20;;;;;;;9.10;4.95;;;16.90;99.90;;;;;;7372918;19;20021;-59
2023/07/31 08:28:47;;;;;;;7.40;4.53;;;16.90;99.90;;;;;;7374663;19;20086;-59
2023/07/31 08:31:13;;;;;;;9.18;4.72;;;17.00;99.90;;;;;;7372237;19;20015;-60
2023/07/31 08:33:40;;;;;;;9.80;4.47;;;17.00;99.90;;;;;;7371930;19;20438;-59
2023/07/31 08:36:07;;;;;;;9.18;4.22;;;16.90;99.90;;;;;;7371210;19;20798;-59
2023/07/31 08:38:33;;;;;;;6.57;4.13;;;16.80;99.90;;;;;;7377343;19;20506;-59
2023/07/31 08:41:00;;;;;;;8.52;4.35;;;16.80;99.90;;;;;;7368607;19;20323;-58
2023/07/31 08:43:27;;;;;;;7.68;4.72;;;16.80;99.90;;;;;;7375779;19;20021;-59
2023/07/31 08:45:54;;;;;;;6.00;4.50;;;16.80;99.90;;;;;;7368612;19;20011;-58
2023/07/31 08:48:22;;;;;;;7.82;4.70;;;16.90;99.90;;;;;;7377645;19;20015;-58
2023/07/31 08:50:49;;;;;;;7.35;4.53;;;16.90;99.90;;;;;;7374182;19;20018;-58
2023/07/31 08:53:16;;;;;;;7.90;4.60;;;16.90;99.90;;;;;;7376751;19;20082;-59
2023/07/31 08:55:44;;;;;;;7.00;4.20;;;16.90;99.90;;;;;;7368664;19;20018;-58
2023/07/31 08:58:12;;;;;;;5.43;3.95;;;17.00;99.90;;;;;;7374516;19;20018;-58
2023/07/31 09:00:40;;;;;;;7.22;3.53;;;17.00;99.90;;;;;;7372605;19;20461;-59
2023/07/31 09:03:14;;;;;;;5.80;3.92;;;17.00;99.90;;;;;;7374141;19;20015;-58
2023/07/31 09:05:44;;;;;;;6.03;3.55;;;17.00;99.90;;;;;;7366380;19;20053;-58
2023/07/31 09:08:12;;;;;;;5.75;3.50;;;17.10;99.90;;;;;;7373559;19;20375;-59
2023/07/31 09:10:46;;;;;;;4.05;3.10;;;17.20;99.90;;;;;;7370179;19;20093;-58
2023/07/31 09:13:13;;;;;;;4.60;3.20;;;17.30;99.90;;;;;;7373447;19;20033;-58
2023/07/31 09:15:42;;;;;;;5.28;3.00;;;17.40;99.90;;;;;;7372791;19;20431;-58
2023/07/31 09:18:09;;;;;;;6.05;3.65;;;17.30;99.90;;;;;;7373113;19;20565;-58
2023/07/31 09:20:37;;;;;;;4.10;2.72;;;17.30;99.90;;;;;;7369997;19;20797;-58
2023/07/31 09:23:11;;;;;;;3.78;2.58;;;17.40;99.90;;;;;;7373435;19;20362;-58
2023/07/31 09:25:38;;;;;;;4.93;2.17;;;17.40;99.90;;;;;;7372477;19;20010;-65
2023/07/31 09:28:09;;;;;;;4.03;2.35;;;17.30;99.90;;;;;;7371695;19;20797;-63
2023/07/31 09:30:50;;;;;;;3.33;2.40;;;17.30;99.90;;;;;;7370774;19;20018;-64
2023/07/31 09:33:18;;;;;;;3.70;2.33;;;17.20;99.90;;;;;;7371210;19;20399;-63
2023/07/31 09:35:46;;;;;;;3.42;2.65;;;17.20;99.90;;;;;;7371977;19;20054;-64
2023/07/31 09:38:15;;;;;;;3.22;2.13;;;17.40;99.90;;;;;;7371686;19;20028;-63
2023/07/31 09:40:48;;;;;;;2.80;2.10;;;17.40;99.90;;;;;;7372330;19;20002;-65
2023/07/31 09:43:19;;;;;;;4.53;2.17;;;17.60;99.90;;;;;;7376141;19;20011;-62
2023/07/31 09:45:46;;;;;;;2.95;1.73;;;17.60;99.90;;;;;;7367555;19;20052;-62
2023/07/31 09:48:17;;;;;;;3.85;1.75;;;17.70;99.90;;;;;;7370728;19;20019;-62
2023/07/31 09:50:49;;;;;;;2.25;1.55;;;17.80;99.90;;;;;;7371273;19;20427;-62
2023/07/31 09:53:16;;;;;;;4.35;2.25;;;17.70;99.90;;;;;;7371727;19;20021;-65
2023/07/31 09:55:43;;;;;;;3.50;2.03;;;17.80;99.90;;;;;;7371755;19;20021;-62
2023/07/31 09:58:11;;;;;;;4.40;1.98;;;17.70;99.90;;;;;;7369475;19;20049;-62
2023/07/31 10:00:40;;;;;;;3.65;1.90;;;17.70;99.90;;;;;;7371903;19;20036;-57
2023/07/31 10:03:09;;;;;;;3.65;2.40;;;17.70;99.90;;;;;;7373892;19;20558;-62
2023/07/31 10:05:38;;;;;;;2.90;2.05;;;17.80;99.90;;;;;;7376857;19;20015;-64
2023/07/31 10:08:06;;;;;;;3.28;2.55;;;17.80;99.90;;;;;;7371818;19;20039;-58
2023/07/31 10:10:35;;;;;;;3.47;2.50;;;17.80;99.90;;;;;;7373471;19;20025;-58
2023/07/31 10:13:05;;;;;;;3.95;2.35;;;17.80;99.90;;;;;;7371744;19;20016;-58
2023/07/31 10:15:36;;;;;;;4.40;3.05;;;17.80;99.90;;;;;;7370209;19;20472;-58
2023/07/31 10:18:05;;;;;;;3.38;2.60;;;17.80;99.90;;;;;;7369588;19;20454;-58
2023/07/31 10:20:32;;;;;;;3.95;3.00;;;17.90;99.90;;;;;;7365964;19;20018;-58
2023/07/31 10:22:59;;;;;;;4.45;3.05;;;17.90;99.90;;;;;;7371155;19;20515;-58
2023/07/31 10:25:27;;;;;;;3.85;2.85;;;17.90;99.90;;;;;;7370632;19;20485;-57
2023/07/31 10:27:54;;;;;;;3.75;2.63;;;17.90;99.90;;;;;;7369833;19;20024;-58
2023/07/31 10:30:26;;;;;;;3.63;3.15;;;17.90;99.90;;;;;;7371289;19;20023;-58
2023/07/31 10:32:52;;;;;;;;;;;17.90;99.90;;;;;;7376075;19;20019;-58
2023/07/31 10:35:22;;;;;;;3.75;3.30;;;18.00;99.90;;;;;;7377076;19;20447;-58
2023/07/31 10:37:48;;;;;;;4.10;3.40;;;18.00;99.90;;;;;;7375872;19;20026;-58
2023/07/31 10:40:23;;;;;;;4.00;3.55;;;18.00;99.90;;;;;;7373948;19;20018;-58
2023/07/31 10:42:50;;;;;;;5.22;3.00;;;18.10;99.90;;;;;;7374387;19;20037;-57
2023/07/31 10:45:32;;;;;;;4.13;3.28;;;18.20;99.90;;;;;;7375545;19;20056;-58
2023/07/31 10:48:07;;;;;;;5.30;4.20;;;18.30;99.90;;;;;;7375804;19;20015;-58
2023/07/31 10:50:38;;;;;;;4.07;3.28;;;18.30;99.90;;;;;;7376825;19;20046;-57
2023/07/31 10:53:06;;;;;;;5.25;3.10;;;18.30;99.90;;;;;;7376399;19;20336;-57
2023/07/31 10:55:43;;;;;;;3.22;2.60;;;18.30;99.90;;;;;;7378411;19;20014;-58
2023/07/31 10:58:11;;;;;;;4.38;3.67;;;18.20;99.90;;;;;;7375273;19;20019;-58
2023/07/31 11:00:39;;;;;;;3.30;3.00;;;18.20;99.90;;;;;;7378908;19;20044;-58
2023/07/31 11:03:10;;;;;;;3.95;2.75;;;18.20;99.90;;;;;;7376711;19;20022;-59
2023/07/31 11:05:51;;;;;;;5.35;3.67;;;18.10;99.90;;;;;;7378436;19;20047;-58
2023/07/31 11:08:19;;;;;;;4.18;3.60;;;18.20;99.90;;;;;;7374684;19;20023;-58
2023/07/31 11:10:47;;;;;;;3.95;3.55;;;18.40;99.90;;;;;;7374304;19;20538;-58
2023/07/31 11:13:14;;;;;;;3.53;2.92;;;18.40;99.90;;;;;;7375285;19;20175;-58
2023/07/31 11:15:41;;;;;;;3.33;2.92;;;18.40;99.90;;;;;;7371206;19;20074;-58
2023/07/31 11:18:08;;;;;;;4.85;3.03;;;18.40;99.90;;;;;;7375605;19;20014;-58
2023/07/31 11:20:35;;;;;;;3.22;2.40;;;18.50;99.90;;;;;;7370711;19;20018;-58
2023/07/31 11:23:11;;;;;;;2.67;2.35;;;18.50;99.90;;;;;;7366363;19;20018;-57
2023/07/31 11:25:41;;;;;;;2.85;2.53;;;18.60;99.90;;;;;;7377301;19;20533;-58
2023/07/31 11:28:10;;;;;;;3.22;2.90;;;18.80;99.90;;;;;;7370412;19;20021;-58
2023/07/31 11:30:37;;;;;;;2.90;1.88;;;18.90;99.90;;;;;;7365840;19;20018;-58
2023/07/31 11:33:05;;;;;;;3.05;2.20;;;19.00;99.90;;;;;;7373040;19;20019;-58
2023/07/31 11:35:32;;;;;;;2.08;1.65;;;18.90;99.90;;;;;;7369208;19;20022;-58
2023/07/31 11:38:00;;;;;;;1.30;1.20;;;19.00;99.90;;;;;;7370444;19;20014;-65
2023/07/31 11:40:29;;;;;;;1.50;1.15;;;19.00;99.90;;;;;;7374828;19;20098;-58
2023/07/31 11:42:57;;;;;;;1.45;0.90;;;19.00;99.90;;;;;;7370526;19;20466;-58
2023/07/31 11:45:28;;;;;;;1.25;0.95;;;19.00;99.90;;;;;;7375451;19;20365;-58
2023/07/31 11:47:55;;;;;;;3.80;1.50;;;18.90;99.90;;;;;;7373511;19;20482;-58
2023/07/31 11:50:25;;;;;;;3.90;1.42;;;18.90;99.90;;;;;;7374612;19;20014;-59
2023/07/31 11:52:56;;;;;;;3.13;1.90;;;19.00;99.90;;;;;;7377113;19;20490;-58
2023/07/31 11:55:23;;;;;;;3.47;1.67;;;19.00;99.90;;;;;;7376193;19;20085;-58
2023/07/31 11:58:09;;;;;;;2.60;1.75;;;19.00;99.90;;;;;;7373042;19;20019;-58
2023/07/31 12:00:36;;;;;;;6.75;2.30;;;19.10;99.90;;;;;;7368521;19;20094;-58
2023/07/31 12:03:02;;;;;;;4.53;2.85;;;19.10;99.90;;;;;;7371868;19;20045;-57
2023/07/31 12:05:29;;;;;;;4.40;2.60;;;19.40;99.90;;;;;;7376022;19;20130;-58
2023/07/31 12:07:56;;;;;;;5.53;3.10;;;19.50;99.90;;;;;;7371594;19;20508;-58
2023/07/31 12:10:26;;;;;;;5.32;3.47;;;19.60;99.90;;;;;;7372069;19;20118;-58
2023/07/31 12:13:04;;;;;;;4.67;2.47;;;19.50;99.90;;;;;;7371765;19;20035;-57
2023/07/31 12:15:38;;;;;;;3.92;2.20;;;19.20;99.90;;;;;;7373075;19;20255;-57
2023/07/31 12:18:06;;;;;;;5.30;2.70;;;19.10;99.90;;;;;;7375210;19;20465;-58
2023/07/31 12:20:33;;;;;;;4.50;2.70;;;19.40;99.90;;;;;;7364251;19;20033;-58
2023/07/31 12:23:00;;;;;;;2.70;1.40;;;19.60;99.90;;;;;;7371232;19;20024;-59
2023/07/31 12:25:31;;;;;;;4.80;1.67;;;19.60;99.90;;;;;;7377310;19;20055;-57
2023/07/31 12:27:58;;;;;;;1.83;1.23;;;19.50;99.90;;;;;;7374533;19;20026;-57
2023/07/31 12:30:32;;;;;;;3.17;1.65;;;19.30;99.90;;;;;;7371967;19;20371;-57
2023/07/31 12:33:07;;;;;;;3.92;1.70;;;19.20;99.90;;;;;;7370474;19;20018;-57
2023/07/31 12:35:38;;;;;;;3.35;1.30;;;19.30;99.90;;;;;;7371109;19;20090;-58
2023/07/31 12:38:04;;;;;;;3.47;1.92;;;19.50;99.90;;;;;;7371597;19;20501;-57
2023/07/31 12:40:31;;;;;;;3.95;1.90;;;19.50;99.90;;;;;;7370081;19;20046;-57
2023/07/31 12:42:57;;;;;;;3.75;2.13;;;19.50;99.90;;;;;;7370354;19;20018;-57